Time;durP1;ratioP1;P1;durP2;ratioP2;P2;SDS_P1;SDS_P2;PMS_P1;PMS_P2;Temp;Humidity;BMP_temperature;BMP_pressure;BME280_temperature;BME280_humidity;BME280_pressure;Samples;Min_cycle;Max_cycle;Signal;HPM_P1;HPM_P2
2020/12/27 00:05:31;;;;;;;1.67;0.80;;;3.80;99.90;;;;;;6745466;88;20552;-76
2020/12/27 00:15:31;;;;;;;1.65;0.60;;;3.80;99.90;;;;;;6743715;88;20219;-75
2020/12/27 00:25:36;;;;;;;2.15;0.50;;;3.80;99.90;;;;;;6750745;88;20231;-76
2020/12/27 00:35:37;;;;;;;2.10;0.57;;;3.70;99.90;;;;;;6745201;88;20520;-76
2020/12/27 00:45:37;;;;;;;0.80;0.47;;;3.80;99.90;;;;;;6756614;88;20861;-76
2020/12/27 00:55:38;;;;;;;1.52;0.62;;;3.80;99.90;;;;;;6751757;88;20599;-76
2020/12/27 01:05:38;;;;;;;1.55;0.50;;;3.80;99.90;;;;;;6752690;88;20563;-77
2020/12/27 01:15:40;;;;;;;2.17;0.60;;;3.80;99.90;;;;;;6743261;88;20368;-78
2020/12/27 01:25:44;;;;;;;1.98;0.60;;;3.90;99.90;;;;;;6750016;88;20290;-77
2020/12/27 01:35:45;;;;;;;1.17;0.50;;;4.00;99.90;;;;;;6747975;88;20263;-77
2020/12/27 01:45:45;;;;;;;2.10;0.50;;;4.00;99.90;;;;;;6746132;88;20202;-77
2020/12/27 01:55:46;;;;;;;1.45;0.50;;;4.00;99.90;;;;;;6749323;88;20181;-77
2020/12/27 02:05:50;;;;;;;2.35;0.65;;;4.00;99.90;;;;;;6756855;88;20308;-77
2020/12/27 02:15:51;;;;;;;1.02;0.40;;;4.10;99.90;;;;;;6746985;88;20280;-78
2020/12/27 02:25:51;;;;;;;3.90;0.50;;;4.10;99.90;;;;;;6743308;88;20205;-75
2020/12/27 02:35:54;;;;;;;1.10;0.50;;;4.10;99.90;;;;;;6743134;88;20238;-77
2020/12/27 02:45:56;;;;;;;1.12;0.40;;;4.10;99.90;;;;;;6747116;88;20254;-78
2020/12/27 02:55:57;;;;;;;1.23;0.30;;;4.20;99.90;;;;;;6742070;88;20185;-77
2020/12/27 03:05:59;;;;;;;0.55;0.30;;;4.20;99.90;;;;;;6747179;88;20180;-77
2020/12/27 03:16:11;;;;;;;0.80;0.30;;;4.20;99.90;;;;;;6748107;88;20241;-77
2020/12/27 03:26:14;;;;;;;1.08;0.22;;;4.20;99.90;;;;;;6759202;88;20199;-77
2020/12/27 03:36:15;;;;;;;0.70;0.30;;;4.20;99.90;;;;;;6748798;88;20239;-75
2020/12/27 03:46:17;;;;;;;0.70;0.30;;;4.30;99.90;;;;;;6742827;88;20200;-77
2020/12/27 03:56:23;;;;;;;1.27;0.47;;;4.20;99.90;;;;;;6741592;88;20265;-77
2020/12/27 04:06:25;;;;;;;1.55;0.40;;;4.10;99.90;;;;;;6735211;88;20281;-77
2020/12/27 04:16:26;;;;;;;1.58;0.28;;;4.10;99.90;;;;;;6736901;88;20313;-77
2020/12/27 04:26:28;;;;;;;1.12;0.30;;;4.30;99.90;;;;;;6740001;88;20227;-77
2020/12/27 04:36:29;;;;;;;0.80;0.35;;;4.40;99.90;;;;;;6736242;88;20214;-77
2020/12/27 04:46:30;;;;;;;0.80;0.35;;;4.20;99.90;;;;;;6741291;88;20243;-75
2020/12/27 04:56:32;;;;;;;0.75;0.22;;;4.10;99.90;;;;;;6754292;88;20212;-77
2020/12/27 05:06:34;;;;;;;0.47;0.20;;;4.20;99.90;;;;;;6738575;88;20308;-75
2020/12/27 05:16:36;;;;;;;1.10;0.20;;;4.40;99.90;;;;;;6739722;88;20716;-76
2020/12/27 05:26:42;;;;;;;0.40;0.20;;;4.30;99.90;;;;;;6742263;88;20208;-76
2020/12/27 05:36:44;;;;;;;0.67;0.20;;;4.40;99.90;;;;;;6744427;88;20233;-77
2020/12/27 05:46:46;;;;;;;0.37;0.20;;;4.50;99.90;;;;;;6750278;88;20762;-75
2020/12/27 05:56:55;;;;;;;0.35;0.10;;;4.50;99.90;;;;;;6743012;88;20237;-76
2020/12/27 06:07:05;;;;;;;0.73;0.22;;;4.60;99.90;;;;;;6745317;88;20220;-77
2020/12/27 06:17:16;;;;;;;0.40;0.20;;;4.60;99.90;;;;;;6754820;88;20177;-76
2020/12/27 06:27:16;;;;;;;0.30;0.10;;;4.60;99.90;;;;;;6744496;88;20196;-76
2020/12/27 06:37:17;;;;;;;0.60;0.20;;;4.70;99.90;;;;;;6745690;88;20706;-77
2020/12/27 06:47:18;;;;;;;0.37;0.20;;;4.70;99.90;;;;;;6761383;88;20504;-75
2020/12/27 06:57:45;;;;;;;0.43;0.15;;;4.60;99.90;;;;;;6758584;88;20204;-77
2020/12/27 07:07:46;;;;;;;0.43;0.20;;;4.70;99.90;;;;;;6741438;88;20200;-78
2020/12/27 07:17:49;;;;;;;0.50;0.20;;;4.80;99.90;;;;;;6748630;88;20239;-77
2020/12/27 07:27:50;;;;;;;0.70;0.30;;;4.90;99.90;;;;;;6741730;88;20229;-76
2020/12/27 07:38:01;;;;;;;0.73;0.35;;;4.70;99.90;;;;;;6741172;88;20624;-76
2020/12/27 07:48:02;;;;;;;0.20;0.10;;;4.70;99.90;;;;;;6748309;88;20185;-77
2020/12/27 07:58:05;;;;;;;0.82;0.30;;;4.70;99.90;;;;;;6739806;88;20641;-76
2020/12/27 08:08:07;;;;;;;0.45;0.20;;;4.80;99.90;;;;;;6736126;88;20196;-73
2020/12/27 08:18:10;;;;;;;0.55;0.20;;;4.90;99.90;;;;;;6733533;88;20180;-77
2020/12/27 08:28:14;;;;;;;0.75;0.20;;;4.90;99.90;;;;;;6734288;88;20220;-77
2020/12/27 08:38:30;;;;;;;0.47;0.20;;;4.90;99.90;;;;;;6728389;88;20181;-78
2020/12/27 08:48:38;;;;;;;0.32;0.10;;;4.90;99.90;;;;;;6730867;88;20300;-76
2020/12/27 08:58:38;;;;;;;0.40;0.20;;;4.90;99.90;;;;;;6722167;88;20206;-76
2020/12/27 09:08:39;;;;;;;0.57;0.20;;;4.90;99.90;;;;;;6727684;88;20214;-76
2020/12/27 09:18:42;;;;;;;0.30;0.20;;;4.80;99.90;;;;;;6732307;88;20185;-76
2020/12/27 09:28:42;;;;;;;0.75;0.30;;;4.70;99.90;;;;;;6730375;88;20224;-76
2020/12/27 09:38:45;;;;;;;0.55;0.22;;;4.80;99.90;;;;;;6724464;88;20234;-76
2020/12/27 09:48:46;;;;;;;0.22;0.10;;;5.00;99.90;;;;;;6738671;88;20204;-77
2020/12/27 09:58:46;;;;;;;1.15;0.40;;;5.10;99.90;;;;;;6752402;88;20210;-77
2020/12/27 10:08:47;;;;;;;0.80;0.30;;;5.10;99.90;;;;;;6745882;88;20211;-76
2020/12/27 10:18:47;;;;;;;0.82;0.43;;;5.00;99.90;;;;;;6739947;88;20185;-76
2020/12/27 10:28:48;;;;;;;0.52;0.20;;;5.00;99.90;;;;;;6734097;88;20669;-75
2020/12/27 10:38:48;;;;;;;1.25;0.60;;;5.10;99.90;;;;;;6744913;88;20214;-76
2020/12/27 10:48:49;;;;;;;0.95;0.32;;;5.10;99.90;;;;;;6745928;88;20692;-76
2020/12/27 10:58:50;;;;;;;1.00;0.40;;;5.20;99.90;;;;;;6747210;88;20229;-76
2020/12/27 11:08:50;;;;;;;2.78;0.65;;;5.20;99.90;;;;;;6740281;88;20220;-76
2020/12/27 11:18:51;;;;;;;0.28;0.15;;;5.20;99.90;;;;;;6750348;88;20718;-75
2020/12/27 11:28:52;;;;;;;0.47;0.32;;;5.20;99.90;;;;;;6741882;88;20239;-76
2020/12/27 11:38:52;;;;;;;0.88;0.40;;;5.20;99.90;;;;;;6750982;88;20340;-77
2020/12/27 11:48:53;;;;;;;1.05;0.40;;;5.20;99.90;;;;;;6741798;88;20178;-76
2020/12/27 11:58:53;;;;;;;1.45;0.40;;;5.10;99.90;;;;;;6748763;88;20192;-75
2020/12/27 12:08:54;;;;;;;1.60;0.50;;;4.90;99.90;;;;;;6747127;88;20247;-76
2020/12/27 12:18:54;;;;;;;0.57;0.32;;;4.70;99.90;;;;;;6754532;88;20655;-75
2020/12/27 12:28:56;;;;;;;1.20;0.45;;;4.60;99.90;;;;;;6752093;88;20263;-76
2020/12/27 12:38:57;;;;;;;1.08;0.40;;;4.50;99.90;;;;;;6751493;88;20195;-76
2020/12/27 12:48:57;;;;;;;2.05;0.80;;;4.50;99.90;;;;;;6747970;88;20168;-75
2020/12/27 12:58:58;;;;;;;0.93;0.43;;;4.50;99.90;;;;;;6747851;88;20772;-76
2020/12/27 13:08:58;;;;;;;1.45;0.70;;;4.40;99.90;;;;;;6750870;88;20186;-77
2020/12/27 13:18:59;;;;;;;1.12;0.57;;;4.50;99.90;;;;;;6748110;88;20192;-74
2020/12/27 13:28:59;;;;;;;1.40;0.62;;;4.40;99.90;;;;;;6742648;88;20678;-74
2020/12/27 13:39:00;;;;;;;1.42;0.52;;;3.80;99.90;;;;;;6742368;88;20176;-76
2020/12/27 13:49:01;;;;;;;0.80;0.40;;;3.70;99.90;;;;;;6764566;88;20252;-76
2020/12/27 13:59:01;;;;;;;1.00;0.40;;;3.60;99.90;;;;;;6749929;88;20529;-77
2020/12/27 14:09:02;;;;;;;1.50;0.50;;;3.60;99.90;;;;;;6765617;88;20237;-76
2020/12/27 14:19:02;;;;;;;0.60;0.40;;;3.50;99.90;;;;;;6758426;88;20689;-77
2020/12/27 14:29:04;;;;;;;1.42;0.50;;;3.60;99.90;;;;;;6750202;88;20513;-76
2020/12/27 14:39:04;;;;;;;1.33;0.47;;;3.50;99.90;;;;;;6751000;88;20185;-74
2020/12/27 14:49:05;;;;;;;0.73;0.20;;;3.40;99.90;;;;;;6749944;88;20604;-76
2020/12/27 14:59:05;;;;;;;1.50;0.45;;;3.40;99.90;;;;;;6756053;88;20620;-76
2020/12/27 15:09:06;;;;;;;1.35;0.60;;;3.30;99.90;;;;;;6746719;88;20497;-76
2020/12/27 15:19:06;;;;;;;0.47;0.22;;;3.30;99.90;;;;;;6738726;88;20808;-76
2020/12/27 15:29:07;;;;;;;0.90;0.40;;;3.40;99.90;;;;;;6747188;88;20202;-76
2020/12/27 15:39:07;;;;;;;1.33;0.50;;;3.50;99.90;;;;;;6746054;88;20212;-76
2020/12/27 15:49:08;;;;;;;1.15;0.50;;;3.50;99.90;;;;;;6745164;88;20196;-76
2020/12/27 15:59:08;;;;;;;1.40;0.50;;;3.60;99.90;;;;;;6748001;88;20210;-76
2020/12/27 16:09:09;;;;;;;1.15;0.40;;;3.50;99.90;;;;;;6745116;88;20193;-75
2020/12/27 16:19:11;;;;;;;1.27;0.35;;;3.40;99.90;;;;;;6745632;88;20323;-75
2020/12/27 16:29:12;;;;;;;1.10;0.40;;;3.60;99.90;;;;;;6742138;88;20192;-75
2020/12/27 16:39:13;;;;;;;1.10;0.35;;;3.60;99.90;;;;;;6741535;88;20219;-74
2020/12/27 16:49:13;;;;;;;1.30;0.35;;;3.60;99.90;;;;;;6747701;88;20250;-74
2020/12/27 16:59:14;;;;;;;0.52;0.20;;;3.70;99.90;;;;;;6752844;88;20330;-75
2020/12/27 17:09:14;;;;;;;0.90;0.40;;;3.40;99.90;;;;;;6749273;88;20272;-75
2020/12/27 17:19:16;;;;;;;0.37;0.20;;;3.30;99.90;;;;;;6748240;88;20679;-75
2020/12/27 17:29:16;;;;;;;0.90;0.30;;;3.20;99.90;;;;;;6748405;88;20506;-75
2020/12/27 17:39:17;;;;;;;0.93;0.40;;;3.10;99.90;;;;;;6745089;88;20173;-73
2020/12/27 17:49:17;;;;;;;1.25;0.50;;;3.10;99.90;;;;;;6751249;88;20671;-75
2020/12/27 17:59:18;;;;;;;0.95;0.40;;;3.20;99.90;;;;;;6744757;88;20206;-76
2020/12/27 18:09:19;;;;;;;1.17;0.43;;;3.20;99.90;;;;;;6751115;88;20212;-76
2020/12/27 18:19:19;;;;;;;2.22;0.50;;;3.30;99.90;;;;;;6750772;87;20641;-76
2020/12/27 18:29:20;;;;;;;3.33;0.70;;;3.30;99.90;;;;;;6746204;88;20705;-75
2020/12/27 18:39:20;;;;;;;2.50;0.60;;;3.40;99.90;;;;;;6753241;88;20209;-75
2020/12/27 18:49:21;;;;;;;0.73;0.20;;;3.40;99.90;;;;;;6748279;88;20624;-76
2020/12/27 18:59:22;;;;;;;1.35;0.50;;;3.50;99.90;;;;;;6745006;87;20188;-73
2020/12/27 19:09:22;;;;;;;1.02;0.47;;;3.70;99.90;;;;;;6746775;88;20615;-74
2020/12/27 19:19:22;;;;;;;0.80;0.30;;;3.90;99.90;;;;;;6756153;88;20207;-74
2020/12/27 19:29:23;;;;;;;0.88;0.40;;;4.10;99.90;;;;;;6746936;88;20192;-74
2020/12/27 19:39:24;;;;;;;0.80;0.20;;;4.40;99.90;;;;;;6754774;88;20185;-74
2020/12/27 19:49:24;;;;;;;0.85;0.30;;;4.60;99.90;;;;;;6753772;87;20207;-74
2020/12/27 19:59:25;;;;;;;0.32;0.20;;;4.80;99.90;;;;;;6742493;88;20221;-74
2020/12/27 20:09:25;;;;;;;0.40;0.10;;;4.80;99.90;;;;;;6750582;88;20321;-74
2020/12/27 20:19:26;;;;;;;0.52;0.20;;;5.00;99.90;;;;;;6746127;88;20264;-74
2020/12/27 20:29:26;;;;;;;0.57;0.30;;;5.00;99.90;;;;;;6742776;88;20254;-74
2020/12/27 20:39:27;;;;;;;1.40;0.20;;;5.00;99.90;;;;;;6745185;88;20622;-74
2020/12/27 20:49:27;;;;;;;1.00;0.43;;;5.00;99.90;;;;;;6743697;88;20200;-75
2020/12/27 20:59:28;;;;;;;1.00;0.20;;;5.10;99.90;;;;;;6744346;88;20218;-75
2020/12/27 21:09:28;;;;;;;0.30;0.10;;;5.10;99.90;;;;;;6746407;88;20196;-75
2020/12/27 21:19:29;;;;;;;0.50;0.20;;;5.20;99.90;;;;;;6740617;88;20215;-74
2020/12/27 21:29:30;;;;;;;0.30;0.10;;;5.20;99.90;;;;;;6744553;88;20305;-75
2020/12/27 21:39:30;;;;;;;0.30;0.17;;;5.20;99.90;;;;;;6737737;88;20184;-75
2020/12/27 21:49:31;;;;;;;0.30;0.10;;;5.30;99.90;;;;;;6749057;87;20757;-75
2020/12/27 21:59:31;;;;;;;0.20;0.10;;;5.40;99.90;;;;;;6745186;88;20756;-75
2020/12/27 22:09:32;;;;;;;0.10;0.10;;;5.40;99.90;;;;;;6743042;88;20240;-75
2020/12/27 22:19:32;;;;;;;0.37;0.20;;;5.40;99.90;;;;;;6749506;88;20320;-75
2020/12/27 22:29:33;;;;;;;0.30;0.10;;;5.50;99.90;;;;;;6749040;88;20332;-75
2020/12/27 22:39:34;;;;;;;0.90;0.30;;;5.50;99.90;;;;;;6747678;88;20235;-75
2020/12/27 22:49:37;;;;;;;0.32;0.20;;;5.50;99.90;;;;;;6750153;88;20192;-75
2020/12/27 22:59:38;;;;;;;0.52;0.20;;;5.50;99.90;;;;;;6746553;88;20177;-74
2020/12/27 23:09:39;;;;;;;0.50;0.20;;;5.50;99.90;;;;;;6749510;88;20249;-74
2020/12/27 23:19:40;;;;;;;0.32;0.13;;;5.60;99.90;;;;;;6744201;88;20660;-74
2020/12/27 23:29:40;;;;;;;0.75;0.30;;;5.50;99.90;;;;;;6744236;88;20195;-74
2020/12/27 23:39:41;;;;;;;0.43;0.20;;;5.40;99.90;;;;;;6748204;88;20662;-75
2020/12/27 23:49:41;;;;;;;0.55;0.20;;;5.30;99.90;;;;;;6756543;88;20709;-74
2020/12/27 23:59:42;;;;;;;0.73;0.20;;;5.30;99.90;;;;;;6749115;88;20844;-74
